Time;durP1;ratioP1;P1;durP2;ratioP2;P2;SDS_P1;SDS_P2;PMS_P1;PMS_P2;Temp;Humidity;BMP_temperature;BMP_pressure;BME280_temperature;BME280_humidity;BME280_pressure;Samples;Min_cycle;Max_cycle;Signal;HPM_P1;HPM_P2
2023/02/12 00:02:10;;;;;;;16.20;14.70;;;;;;;;;;4966823;28;20644;-88
2023/02/12 00:04:37;;;;;;;16.07;14.57;;;;;;;;;;4952344;28;20293;-88
2023/02/12 00:07:02;;;;;;;16.73;15.17;;;;;;;;;;4942101;28;20231;-89
2023/02/12 00:09:30;;;;;;;16.57;15.00;;;;;;;;;;4976868;28;20277;-88
2023/02/12 00:11:58;;;;;;;13.77;12.57;;;;;;;;;;5000975;28;20241;-88
2023/02/12 00:14:24;;;;;;;14.83;13.43;;;;;;;;;;5016156;28;20249;-89
2023/02/12 00:16:52;;;;;;;13.97;12.67;;;;;;;;;;4986939;28;20237;-89
2023/02/12 00:19:17;;;;;;;14.60;13.20;;;;;;;;;;4978921;28;20313;-88
2023/02/12 00:21:43;;;;;;;13.57;12.03;;;;;;;;;;4994354;28;20277;-89
2023/02/12 00:24:08;;;;;;;13.40;12.20;;;;;;;;;;4992144;28;20413;-87
2023/02/12 00:26:34;;;;;;;12.37;11.17;;;;;;;;;;4975950;28;20233;-90
2023/02/12 00:29:00;;;;;;;11.90;10.80;;;;;;;;;;4977025;28;20233;-88
2023/02/12 00:31:27;;;;;;;11.90;10.80;;;;;;;;;;5004888;28;20222;-88
2023/02/12 00:33:58;;;;;;;11.87;10.57;;;;;;;;;;4983191;28;20236;-88
2023/02/12 00:36:24;;;;;;;11.87;10.67;;;;;;;;;;4977822;28;20226;-89
2023/02/12 00:38:51;;;;;;;11.33;10.07;;;;;;;;;;4987022;28;20223;-88
2023/02/12 00:41:17;;;;;;;11.70;9.53;;;;;;;;;;4945009;28;20228;-88
2023/02/12 00:43:45;;;;;;;11.13;9.13;;;;;;;;;;5005476;28;20236;-88
2023/02/12 00:46:11;;;;;;;8.50;7.70;;;;;;;;;;5001924;28;20236;-89
2023/02/12 00:48:36;;;;;;;9.00;7.70;;;;;;;;;;4973102;28;20222;-89
2023/02/12 00:51:02;;;;;;;8.90;8.00;;;;;;;;;;4974998;28;20218;-89
2023/02/12 00:53:31;;;;;;;9.97;7.37;;;;;;;;;;4996266;28;20226;-88
2023/02/12 00:55:59;;;;;;;8.47;7.57;;;;;;;;;;4982511;28;20221;-89
2023/02/12 00:58:30;;;;;;;9.67;7.03;;;;;;;;;;4969033;28;20218;-89
2023/02/12 01:00:55;;;;;;;8.40;7.50;;;;;;;;;;4967103;28;20253;-89
2023/02/12 01:03:24;;;;;;;8.43;7.53;;;;;;;;;;4982116;28;20236;-88
2023/02/12 01:05:53;;;;;;;9.00;6.97;;;;;;;;;;4995582;28;20205;-88
2023/02/12 01:08:20;;;;;;;9.23;6.93;;;;;;;;;;4976256;28;20214;-88
2023/02/12 01:10:47;;;;;;;8.83;7.67;;;;;;;;;;4975301;28;20319;-90
2023/02/12 01:13:20;;;;;;;8.43;7.17;;;;;;;;;;5016323;28;20372;-89
2023/02/12 01:15:46;;;;;;;12.07;8.10;;;;;;;;;;4981157;28;20229;-88
2023/02/12 01:18:15;;;;;;;12.40;8.27;;;;;;;;;;4961794;28;20238;-89
2023/02/12 01:20:40;;;;;;;8.60;7.60;;;;;;;;;;4967490;28;20222;-90
2023/02/12 01:23:07;;;;;;;10.63;7.47;;;;;;;;;;4971320;28;20234;-89
2023/02/12 01:25:33;;;;;;;7.90;7.10;;;;;;;;;;5012356;28;20290;-88
2023/02/12 01:27:58;;;;;;;10.83;7.97;;;;;;;;;;4966256;28;20281;-89
2023/02/12 01:30:27;;;;;;;10.30;7.63;;;;;;;;;;4983717;28;20237;-89
2023/02/12 01:32:54;;;;;;;8.23;7.00;;;;;;;;;;4993417;28;20285;-89
2023/02/12 01:35:20;;;;;;;8.83;7.47;;;;;;;;;;4969261;28;20218;-88
2023/02/12 01:37:48;;;;;;;9.87;7.57;;;;;;;;;;4977550;28;20603;-86
2023/02/12 01:40:14;;;;;;;8.07;7.27;;;;;;;;;;4951593;28;20220;-89
2023/02/12 01:42:40;;;;;;;11.43;7.63;;;;;;;;;;4962967;28;20227;-88
2023/02/12 01:45:14;;;;;;;8.07;7.27;;;;;;;;;;4986978;28;20316;-88
2023/02/12 01:47:40;;;;;;;7.97;6.43;;;;;;;;;;4983028;28;20218;-88
2023/02/12 01:50:07;;;;;;;9.00;7.20;;;;;;;;;;4958589;28;20727;-89
2023/02/12 01:52:33;;;;;;;9.13;6.97;;;;;;;;;;4970546;28;20224;-89
2023/02/12 01:55:02;;;;;;;8.03;6.87;;;;;;;;;;4957424;28;20237;-88
2023/02/12 01:57:29;;;;;;;7.37;6.67;;;;;;;;;;4976401;28;20590;-88
2023/02/12 01:59:55;;;;;;;8.13;7.33;;;;;;;;;;4968421;28;20226;-88
2023/02/12 02:02:21;;;;;;;9.50;7.53;;;;;;;;;;4970305;28;20297;-88
2023/02/12 02:04:49;;;;;;;7.67;6.80;;;;;;;;;;4974980;28;20234;-89
2023/02/12 02:07:18;;;;;;;9.87;7.67;;;;;;;;;;4963368;28;20717;-89
2023/02/12 02:09:44;;;;;;;8.30;7.27;;;;;;;;;;4969939;28;20230;-89
2023/02/12 02:14:57;;;;;;;10.90;8.13;;;;;;;;;;4970625;28;20226;-88
2023/02/12 02:17:43;;;;;;;10.87;8.63;;;;;;;;;;4963019;28;20229;-89
2023/02/12 02:20:34;;;;;;;9.23;8.07;;;;;;;;;;5007083;28;20230;-88
2023/02/12 02:23:26;;;;;;;9.57;7.67;;;;;;;;;;4979325;28;20694;-89
2023/02/12 02:26:22;;;;;;;10.87;8.13;;;;;;;;;;4995650;28;20309;-89
2023/02/12 02:28:58;;;;;;;9.70;8.07;;;;;;;;;;4997000;28;20230;-88
2023/02/12 02:32:00;;;;;;;11.23;8.33;;;;;;;;;;5010337;28;20313;-88
2023/02/12 02:34:54;;;;;;;10.13;8.40;;;;;;;;;;4998940;28;20213;-88
2023/02/12 02:37:31;;;;;;;8.67;7.87;;;;;;;;;;4990673;28;20222;-88
2023/02/12 02:40:01;;;;;;;10.40;8.97;;;;;;;;;;4977807;28;20594;-89
2023/02/12 02:42:30;;;;;;;9.97;8.90;;;;;;;;;;4927902;28;20607;-88
2023/02/12 02:45:15;;;;;;;12.30;9.00;;;;;;;;;;4973720;28;20234;-89
2023/02/12 02:48:30;;;;;;;12.03;9.63;;;;;;;;;;4988811;28;20230;-90
2023/02/12 02:51:16;;;;;;;11.27;9.33;;;;;;;;;;4984230;28;20222;-89
2023/02/12 02:53:44;;;;;;;10.30;8.73;;;;;;;;;;4980602;28;20285;-88
2023/02/12 02:56:13;;;;;;;11.53;10.17;;;;;;;;;;4995556;28;20242;-89
2023/02/12 02:58:43;;;;;;;12.37;9.93;;;;;;;;;;5001015;28;20230;-88
2023/02/12 03:01:28;;;;;;;11.80;10.20;;;;;;;;;;5003599;28;20233;-89
2023/02/12 03:04:07;;;;;;;12.60;8.87;;;;;;;;;;4978479;28;20226;-88
2023/02/12 03:06:53;;;;;;;10.60;8.77;;;;;;;;;;4973542;28;20237;-89
2023/02/12 03:09:38;;;;;;;14.50;9.37;;;;;;;;;;5004047;28;20294;-89
2023/02/12 03:12:08;;;;;;;10.43;8.10;;;;;;;;;;4995603;28;20699;-90
2023/02/12 03:14:37;;;;;;;13.50;9.33;;;;;;;;;;4965276;28;20226;-89
2023/02/12 03:17:06;;;;;;;12.57;9.50;;;;;;;;;;4961954;28;20253;-88
2023/02/12 03:19:35;;;;;;;13.07;9.60;;;;;;;;;;4962958;28;20230;-87
2023/02/12 03:22:07;;;;;;;12.30;9.63;;;;;;;;;;4957057;28;20377;-88
2023/02/12 03:24:36;;;;;;;13.93;10.23;;;;;;;;;;4957751;28;20238;-89
2023/02/12 03:27:08;;;;;;;12.40;10.27;;;;;;;;;;4987281;28;20229;-89
2023/02/12 03:29:34;;;;;;;11.77;10.53;;;;;;;;;;4954515;28;20218;-89
2023/02/12 03:32:08;;;;;;;13.47;10.93;;;;;;;;;;4958164;28;20730;-89
2023/02/12 03:34:39;;;;;;;15.33;11.50;;;;;;;;;;4977778;28;20252;-89
2023/02/12 03:37:10;;;;;;;14.43;11.20;;;;;;;;;;4955162;28;20233;-88
2023/02/12 03:39:54;;;;;;;16.90;11.53;;;;;;;;;;4980806;28;20233;-89
2023/02/12 03:42:39;;;;;;;17.07;11.27;;;;;;;;;;4957452;28;20293;-88
2023/02/12 03:45:09;;;;;;;11.70;10.50;;;;;;;;;;4981216;28;20234;-89
2023/02/12 03:47:47;;;;;;;15.20;10.60;;;;;;;;;;4956947;28;20222;-87
2023/02/12 03:50:21;;;;;;;18.07;11.50;;;;;;;;;;4969569;28;20222;-88
2023/02/12 03:52:46;;;;;;;14.80;10.83;;;;;;;;;;4989691;28;20245;-88
2023/02/12 03:55:14;;;;;;;16.50;10.97;;;;;;;;;;4949944;28;20210;-87
2023/02/12 03:57:47;;;;;;;13.87;10.63;;;;;;;;;;4969948;28;20222;-89
2023/02/12 04:00:17;;;;;;;15.33;11.27;;;;;;;;;;4995390;28;20248;-88
2023/02/12 04:02:48;;;;;;;16.10;11.80;;;;;;;;;;4964759;28;20638;-88
2023/02/12 04:05:26;;;;;;;15.17;10.57;;;;;;;;;;4953832;28;20250;-89
2023/02/12 04:07:53;;;;;;;14.33;10.13;;;;;;;;;;4947629;28;20219;-89
2023/02/12 04:10:27;;;;;;;15.30;10.97;;;;;;;;;;4946803;28;20284;-89
2023/02/12 04:13:11;;;;;;;17.70;11.73;;;;;;;;;;4983414;28;20226;-89
2023/02/12 04:15:58;;;;;;;15.17;10.93;;;;;;;;;;4992647;28;20312;-88
2023/02/12 04:18:35;;;;;;;14.07;9.67;;;;;;;;;;4980087;28;20715;-89
2023/02/12 04:21:24;;;;;;;12.13;9.07;;;;;;;;;;4965041;28;20257;-88
2023/02/12 04:24:04;;;;;;;13.63;9.60;;;;;;;;;;4960006;28;20265;-89
2023/02/12 04:26:36;;;;;;;12.03;8.90;;;;;;;;;;4979105;28;20240;-89
2023/02/12 04:29:15;;;;;;;12.20;8.50;;;;;;;;;;4926468;29;20227;-89
2023/02/12 04:31:41;;;;;;;12.80;8.73;;;;;;;;;;4958104;28;20229;-88
2023/02/12 04:34:26;;;;;;;14.27;8.63;;;;;;;;;;4972129;28;20226;-88
2023/02/12 04:37:20;;;;;;;10.93;7.80;;;;;;;;;;4956192;28;20226;-90
2023/02/12 04:39:48;;;;;;;15.10;8.03;;;;;;;;;;4964465;28;20214;-89
2023/02/12 04:42:16;;;;;;;14.90;8.37;;;;;;;;;;4974590;28;20213;-89
2023/02/12 04:44:45;;;;;;;13.43;8.27;;;;;;;;;;4989269;28;20249;-89
2023/02/12 04:47:14;;;;;;;12.60;8.43;;;;;;;;;;4959745;28;20249;-89
2023/02/12 04:49:42;;;;;;;13.50;7.50;;;;;;;;;;4952525;28;20217;-89
2023/02/12 04:52:08;;;;;;;13.93;8.17;;;;;;;;;;4963234;28;20313;-89
2023/02/12 04:54:33;;;;;;;11.33;7.97;;;;;;;;;;4952529;28;20265;-90
2023/02/12 04:56:59;;;;;;;14.17;7.93;;;;;;;;;;4992763;28;20226;-90
2023/02/12 04:59:27;;;;;;;11.63;7.60;;;;;;;;;;4949482;28;20229;-90
2023/02/12 05:01:52;;;;;;;11.80;7.90;;;;;;;;;;4988273;28;20226;-89
2023/02/12 05:04:18;;;;;;;13.43;8.73;;;;;;;;;;4957593;28;20230;-89
2023/02/12 05:06:44;;;;;;;14.87;8.60;;;;;;;;;;4970406;28;20225;-89
2023/02/12 05:09:14;;;;;;;24.60;9.63;;;;;;;;;;4978921;28;20260;-89
2023/02/12 05:11:40;;;;;;;13.87;9.33;;;;;;;;;;4963205;28;20225;-90
2023/02/12 05:14:05;;;;;;;23.87;9.50;;;;;;;;;;4978915;28;20601;-90
2023/02/12 05:16:31;;;;;;;18.23;9.60;;;;;;;;;;4959806;28;20225;-89
2023/02/12 05:18:57;;;;;;;19.03;9.10;;;;;;;;;;4974412;28;20249;-90
2023/02/12 05:21:22;;;;;;;18.33;9.40;;;;;;;;;;4954788;28;20290;-89
2023/02/12 05:23:48;;;;;;;23.73;9.97;;;;;;;;;;4991504;28;20226;-89
2023/02/12 05:26:15;;;;;;;18.43;10.10;;;;;;;;;;4945674;28;20225;-90
2023/02/12 05:28:41;;;;;;;18.90;9.33;;;;;;;;;;4945945;28;20834;-89
2023/02/12 05:31:07;;;;;;;17.97;8.97;;;;;;;;;;4966685;28;20276;-90
2023/02/12 05:33:34;;;;;;;15.57;9.20;;;;;;;;;;4967097;28;20698;-89
2023/02/12 05:36:07;;;;;;;19.67;13.73;;;;;;;;;;5007385;28;20280;-90
2023/02/12 05:38:32;;;;;;;22.17;13.80;;;;;;;;;;4954926;28;20333;-89
2023/02/12 05:41:06;;;;;;;26.80;10.80;;;;;;;;;;4984548;28;20234;-89
2023/02/12 05:43:31;;;;;;;28.87;11.23;;;;;;;;;;4946868;28;20257;-89
2023/02/12 05:45:59;;;;;;;16.97;10.07;;;;;;;;;;4957942;28;20234;-90
2023/02/12 05:48:27;;;;;;;18.07;9.90;;;;;;;;;;4943643;28;20309;-90
2023/02/12 05:50:53;;;;;;;22.00;11.40;;;;;;;;;;4964326;28;20230;-89
2023/02/12 05:53:19;;;;;;;22.13;11.77;;;;;;;;;;4977884;28;20219;-90
2023/02/12 05:55:44;;;;;;;27.43;10.63;;;;;;;;;;4966613;28;20221;-90
2023/02/12 05:58:10;;;;;;;20.47;9.90;;;;;;;;;;4959387;28;20222;-90
2023/02/12 06:00:36;;;;;;;29.87;11.97;;;;;;;;;;4973550;28;20702;-90
2023/02/12 06:03:01;;;;;;;29.40;12.70;;;;;;;;;;4970133;28;20292;-90
2023/02/12 06:05:27;;;;;;;18.73;10.30;;;;;;;;;;4962649;28;20226;-89
2023/02/12 06:07:52;;;;;;;21.17;10.93;;;;;;;;;;4960001;28;20465;-90
2023/02/12 06:10:18;;;;;;;29.33;11.07;;;;;;;;;;4965375;28;20233;-91
2023/02/12 06:12:46;;;;;;;20.73;11.40;;;;;;;;;;4942762;28;20226;-90
2023/02/12 06:15:13;;;;;;;17.97;10.20;;;;;;;;;;4973380;28;20660;-89
2023/02/12 06:17:41;;;;;;;20.90;10.60;;;;;;;;;;4945484;28;20226;-89
2023/02/12 06:20:07;;;;;;;28.40;11.20;;;;;;;;;;4957214;28;20317;-89
2023/02/12 06:22:32;;;;;;;25.27;11.70;;;;;;;;;;4960042;28;20249;-89
2023/02/12 06:24:58;;;;;;;21.67;11.47;;;;;;;;;;4983003;28;20229;-89
2023/02/12 06:27:23;;;;;;;23.37;12.47;;;;;;;;;;4972248;28;20222;-90
2023/02/12 06:29:49;;;;;;;24.27;12.57;;;;;;;;;;4942181;28;20229;-89
2023/02/12 06:32:15;;;;;;;31.97;12.87;;;;;;;;;;4957726;28;20230;-90
2023/02/12 06:34:40;;;;;;;27.17;12.80;;;;;;;;;;4942389;28;20435;-89
2023/02/12 06:37:06;;;;;;;29.03;12.73;;;;;;;;;;4956844;28;20317;-90
2023/02/12 06:39:31;;;;;;;29.33;13.10;;;;;;;;;;4927105;28;20218;-89
2023/02/12 06:41:57;;;;;;;32.07;14.20;;;;;;;;;;4927284;28;20777;-90
2023/02/12 06:44:22;;;;;;;31.00;15.07;;;;;;;;;;4957699;28;20738;-90
2023/02/12 06:46:48;;;;;;;36.60;15.93;;;;;;;;;;4944480;28;20292;-90
2023/02/12 06:49:15;;;;;;;36.10;15.67;;;;;;;;;;4979873;28;20285;-89
2023/02/12 06:51:41;;;;;;;29.93;14.50;;;;;;;;;;4990493;28;20226;-89
2023/02/12 06:54:11;;;;;;;25.90;14.50;;;;;;;;;;4995286;28;20219;-90
2023/02/12 06:56:37;;;;;;;34.27;15.63;;;;;;;;;;5003078;28;20270;-89
2023/02/12 06:59:02;;;;;;;28.03;14.50;;;;;;;;;;5005505;28;20252;-89
2023/02/12 07:01:28;;;;;;;20.47;14.30;;;;;;;;;;4967793;28;20228;-89
2023/02/12 07:03:56;;;;;;;27.67;14.60;;;;;;;;;;4975604;28;20713;-90
2023/02/12 07:06:21;;;;;;;26.10;14.47;;;;;;;;;;4993571;28;20241;-89
2023/02/12 07:08:47;;;;;;;21.93;16.00;;;;;;;;;;4989932;28;20230;-89
2023/02/12 07:11:12;;;;;;;25.90;15.50;;;;;;;;;;4978409;28;20221;-89
2023/02/12 07:13:41;;;;;;;24.23;15.83;;;;;;;;;;4966982;28;20268;-89
2023/02/12 07:16:11;;;;;;;23.53;15.90;;;;;;;;;;4947747;28;20248;-89
2023/02/12 07:18:37;;;;;;;23.17;16.30;;;;;;;;;;4965710;28;20610;-89
2023/02/12 07:21:03;;;;;;;22.97;16.67;;;;;;;;;;4962752;28;20237;-89
2023/02/12 07:23:29;;;;;;;25.70;15.97;;;;;;;;;;4953473;28;20221;-89
2023/02/12 07:26:00;;;;;;;25.57;17.17;;;;;;;;;;4961020;28;20622;-89
2023/02/12 07:28:28;;;;;;;26.40;18.90;;;;;;;;;;4962073;28;20600;-88
2023/02/12 07:30:53;;;;;;;27.97;18.87;;;;;;;;;;4968562;28;20677;-89
2023/02/12 07:33:19;;;;;;;32.07;19.43;;;;;;;;;;4961020;28;20230;-89
2023/02/12 07:35:48;;;;;;;25.90;18.07;;;;;;;;;;4944690;28;20653;-89
2023/02/12 07:38:14;;;;;;;28.30;19.57;;;;;;;;;;4945530;28;20231;-89
2023/02/12 07:40:39;;;;;;;29.40;20.13;;;;;;;;;;4971413;28;20234;-89
2023/02/12 07:43:05;;;;;;;28.40;19.00;;;;;;;;;;4982418;28;20230;-88
2023/02/12 07:45:34;;;;;;;27.93;18.27;;;;;;;;;;4973009;28;20240;-89
2023/02/12 07:48:00;;;;;;;31.17;19.77;;;;;;;;;;4976780;28;20218;-88
2023/02/12 07:50:25;;;;;;;32.33;22.40;;;;;;;;;;4965520;28;20226;-89
2023/02/12 07:52:51;;;;;;;23.50;17.13;;;;;;;;;;4978688;28;20229;-89
2023/02/12 07:55:17;;;;;;;32.10;21.50;;;;;;;;;;4983678;28;20287;-89
2023/02/12 07:57:42;;;;;;;26.27;18.47;;;;;;;;;;4959459;28;20281;-88
2023/02/12 08:00:08;;;;;;;30.70;20.80;;;;;;;;;;4960813;28;20240;-89
2023/02/12 08:02:37;;;;;;;38.70;25.20;;;;;;;;;;4961382;28;20256;-89
2023/02/12 08:05:03;;;;;;;33.73;22.73;;;;;;;;;;4964485;28;20233;-88
2023/02/12 08:07:29;;;;;;;26.00;19.67;;;;;;;;;;4974032;28;20646;-88
2023/02/12 08:09:54;;;;;;;25.30;18.87;;;;;;;;;;4974431;28;20257;-88
2023/02/12 08:12:20;;;;;;;30.87;21.07;;;;;;;;;;4969400;28;20292;-88
2023/02/12 08:14:48;;;;;;;30.73;21.13;;;;;;;;;;4959297;28;20222;-89
2023/02/12 08:17:14;;;;;;;24.43;17.47;;;;;;;;;;4974111;28;21032;-89
2023/02/12 08:19:42;;;;;;;27.27;20.23;;;;;;;;;;4942054;28;20234;-87
2023/02/12 08:22:07;;;;;;;22.73;16.73;;;;;;;;;;4959055;28;20222;-89
2023/02/12 08:24:33;;;;;;;23.03;17.40;;;;;;;;;;4942908;28;20781;-88
2023/02/12 08:26:59;;;;;;;25.33;16.67;;;;;;;;;;4945413;28;20218;-88
2023/02/12 08:29:29;;;;;;;24.17;16.73;;;;;;;;;;4975858;28;20229;-88
2023/02/12 08:32:01;;;;;;;23.00;16.27;;;;;;;;;;4959127;28;20707;-90
2023/02/12 08:34:29;;;;;;;21.27;15.93;;;;;;;;;;4958157;28;20705;-89
2023/02/12 08:37:04;;;;;;;20.07;15.20;;;;;;;;;;4957538;28;20246;-89
2023/02/12 08:39:30;;;;;;;21.33;16.10;;;;;;;;;;4971962;28;20205;-88
2023/02/12 08:41:56;;;;;;;22.03;14.73;;;;;;;;;;4977320;28;20252;-88
2023/02/12 08:44:24;;;;;;;22.40;15.37;;;;;;;;;;4969737;28;20224;-88
2023/02/12 08:46:50;;;;;;;21.10;15.10;;;;;;;;;;4944028;28;20742;-88
2023/02/12 08:49:23;;;;;;;19.10;13.87;;;;;;;;;;4959527;28;20222;-88
2023/02/12 08:51:50;;;;;;;22.07;14.17;;;;;;;;;;4999689;28;20403;-88
2023/02/12 08:54:17;;;;;;;18.73;14.57;;;;;;;;;;4969104;28;20234;-89
2023/02/12 08:56:46;;;;;;;21.27;14.87;;;;;;;;;;4970264;28;20222;-89
2023/02/12 08:59:12;;;;;;;18.27;13.93;;;;;;;;;;4954163;28;20234;-89
2023/02/12 09:01:38;;;;;;;18.93;13.37;;;;;;;;;;4973694;28;20255;-90
2023/02/12 09:04:04;;;;;;;14.67;11.43;;;;;;;;;;4973319;28;20656;-82
2023/02/12 09:06:31;;;;;;;17.10;13.27;;;;;;;;;;4950389;28;20245;-82
2023/02/12 09:08:56;;;;;;;15.40;12.10;;;;;;;;;;4943983;28;20297;-81
2023/02/12 09:11:29;;;;;;;16.30;12.63;;;;;;;;;;4938323;28;20295;-82
2023/02/12 09:14:01;;;;;;;13.73;11.80;;;;;;;;;;4952230;28;20222;-81
2023/02/12 09:16:27;;;;;;;12.70;11.40;;;;;;;;;;4937424;28;20226;-81
2023/02/12 09:18:53;;;;;;;16.37;11.80;;;;;;;;;;4975273;28;20234;-82
2023/02/12 09:21:19;;;;;;;13.20;11.53;;;;;;;;;;4996446;28;20630;-81
2023/02/12 09:23:45;;;;;;;12.47;10.70;;;;;;;;;;4953702;28;20226;-82
2023/02/12 09:26:14;;;;;;;13.43;11.53;;;;;;;;;;4965827;28;20308;-81
2023/02/12 09:28:39;;;;;;;13.60;10.60;;;;;;;;;;4980316;28;20240;-81
2023/02/12 09:31:09;;;;;;;15.80;11.37;;;;;;;;;;4939708;28;20246;-82
2023/02/12 09:33:38;;;;;;;12.27;10.97;;;;;;;;;;5000856;28;20222;-79
2023/02/12 09:36:05;;;;;;;12.20;10.63;;;;;;;;;;4991388;28;20313;-81
2023/02/12 09:38:33;;;;;;;12.27;11.03;;;;;;;;;;4940907;28;20225;-81
2023/02/12 09:41:02;;;;;;;15.03;10.90;;;;;;;;;;4959389;28;20223;-82
2023/02/12 09:43:27;;;;;;;12.50;10.17;;;;;;;;;;4986708;28;20228;-79
2023/02/12 09:46:08;;;;;;;12.50;10.80;;;;;;;;;;4973079;28;20369;-81
2023/02/12 09:48:55;;;;;;;12.47;11.27;;;;;;;;;;4977232;28;20357;-80
2023/02/12 09:51:23;;;;;;;11.13;10.07;;;;;;;;;;4979390;28;20294;-80
2023/02/12 09:54:00;;;;;;;11.40;10.20;;;;;;;;;;4974873;28;20237;-81
2023/02/12 09:56:26;;;;;;;13.70;11.20;;;;;;;;;;4989867;28;20225;-79
2023/02/12 09:58:53;;;;;;;13.30;11.90;;;;;;;;;;4962137;28;20230;-81
2023/02/12 10:01:22;;;;;;;11.00;9.20;;;;;;;;;;4971031;28;20222;-82
2023/02/12 10:03:50;;;;;;;10.47;9.37;;;;;;;;;;4987382;28;20238;-82
2023/02/12 10:06:20;;;;;;;10.53;9.43;;;;;;;;;;4970605;28;20242;-81
2023/02/12 10:09:13;;;;;;;10.87;9.77;;;;;;;;;;4956590;28;20242;-81
2023/02/12 10:11:57;;;;;;;10.67;9.67;;;;;;;;;;4971469;28;20234;-81
2023/02/12 10:14:29;;;;;;;9.47;8.53;;;;;;;;;;4983730;28;20231;-80
2023/02/12 10:17:12;;;;;;;9.90;8.93;;;;;;;;;;4970735;28;20250;-81
2023/02/12 10:20:02;;;;;;;10.90;9.90;;;;;;;;;;4981242;28;20285;-79
2023/02/12 10:23:08;;;;;;;11.13;9.37;;;;;;;;;;4981529;28;20222;-80
2023/02/12 10:25:53;;;;;;;9.50;8.60;;;;;;;;;;4963829;28;20242;-81
2023/02/12 10:28:31;;;;;;;10.03;9.03;;;;;;;;;;4967121;28;20222;-80
2023/02/12 10:31:06;;;;;;;9.23;8.43;;;;;;;;;;4955181;28;20691;-81
2023/02/12 10:33:42;;;;;;;10.77;9.03;;;;;;;;;;4988572;28;20279;-81
2023/02/12 10:36:40;;;;;;;10.23;9.33;;;;;;;;;;4996941;28;20613;-82
2023/02/12 10:39:28;;;;;;;10.50;9.43;;;;;;;;;;5002125;28;20218;-81
2023/02/12 10:42:21;;;;;;;10.97;9.93;;;;;;;;;;4955961;28;20353;-82
2023/02/12 10:44:47;;;;;;;12.17;9.87;;;;;;;;;;4987290;28;20602;-80
2023/02/12 10:47:20;;;;;;;12.07;10.43;;;;;;;;;;4956265;28;20225;-81
2023/02/12 10:49:50;;;;;;;15.07;13.47;;;;;;;;;;4970944;28;20238;-81
2023/02/12 10:52:37;;;;;;;18.23;15.23;;;;;;;;;;4975356;28;20958;-81
2023/02/12 10:55:27;;;;;;;13.67;12.27;;;;;;;;;;4967764;28;20226;-81
2023/02/12 10:57:52;;;;;;;15.83;14.13;;;;;;;;;;4968961;28;20222;-80
2023/02/12 11:00:32;;;;;;;12.53;11.23;;;;;;;;;;4975920;28;20217;-81
2023/02/12 11:03:22;;;;;;;12.23;11.13;;;;;;;;;;4981477;28;20222;-81
2023/02/12 11:05:48;;;;;;;12.30;11.00;;;;;;;;;;4988144;28;20241;-79
2023/02/12 11:08:33;;;;;;;15.43;13.07;;;;;;;;;;4964863;28;20214;-79
2023/02/12 11:11:25;;;;;;;19.10;14.47;;;;;;;;;;4997108;28;20230;-80
2023/02/12 11:13:57;;;;;;;14.53;12.30;;;;;;;;;;4978730;28;20800;-83
2023/02/12 11:16:46;;;;;;;13.60;11.27;;;;;;;;;;4989475;28;20237;-82
2023/02/12 11:19:22;;;;;;;12.40;10.97;;;;;;;;;;4934029;28;20226;-83
2023/02/12 11:21:48;;;;;;;13.27;11.97;;;;;;;;;;5000678;28;20229;-83
2023/02/12 11:24:35;;;;;;;11.83;10.73;;;;;;;;;;4956456;28;20706;-82
2023/02/12 11:27:12;;;;;;;11.27;10.13;;;;;;;;;;4971130;28;20225;-80
2023/02/12 11:29:38;;;;;;;10.53;9.43;;;;;;;;;;5005544;28;20301;-82
2023/02/12 11:32:07;;;;;;;11.83;10.63;;;;;;;;;;4960293;28;20372;-81
2023/02/12 11:34:35;;;;;;;14.50;13.10;;;;;;;;;;4973054;28;20219;-82
2023/02/12 11:37:01;;;;;;;25.90;20.63;;;;;;;;;;4976364;28;20795;-82
2023/02/12 11:39:38;;;;;;;14.80;13.50;;;;;;;;;;4941747;28;20234;-81
2023/02/12 11:42:35;;;;;;;13.23;11.93;;;;;;;;;;4943753;28;20241;-82
2023/02/12 11:45:02;;;;;;;14.47;13.00;;;;;;;;;;4967427;28;20285;-82
2023/02/12 11:47:33;;;;;;;13.47;12.27;;;;;;;;;;4972239;28;20237;-80
2023/02/12 11:50:19;;;;;;;12.63;11.37;;;;;;;;;;4945497;28;20230;-82
2023/02/12 11:52:47;;;;;;;15.13;13.17;;;;;;;;;;4961668;28;20241;-81
2023/02/12 11:55:29;;;;;;;15.27;12.80;;;;;;;;;;4983919;28;20945;-84
2023/02/12 11:58:14;;;;;;;14.23;12.83;;;;;;;;;;4999065;28;20269;-81
2023/02/12 12:00:52;;;;;;;14.97;13.37;;;;;;;;;;4967156;28;20237;-82
2023/02/12 12:03:26;;;;;;;14.60;13.10;;;;;;;;;;5003908;28;20318;-82
2023/02/12 12:05:58;;;;;;;12.87;11.57;;;;;;;;;;5001625;28;20633;-82
2023/02/12 12:08:34;;;;;;;11.20;10.10;;;;;;;;;;4980481;28;20226;-82
2023/02/12 12:11:16;;;;;;;12.70;11.53;;;;;;;;;;4959597;28;20239;-82
2023/02/12 12:14:17;;;;;;;12.30;10.20;;;;;;;;;;4969518;28;20259;-83
2023/02/12 12:19:52;;;;;;;10.70;9.70;;;;;;;;;;4973884;28;20217;-81
2023/02/12 12:22:38;;;;;;;10.90;9.33;;;;;;;;;;4988603;28;20674;-83
2023/02/12 12:25:19;;;;;;;10.30;8.57;;;;;;;;;;4968612;28;20304;-82
2023/02/12 12:28:10;;;;;;;10.10;9.10;;;;;;;;;;4945523;28;20594;-83
2023/02/12 12:31:11;;;;;;;35.13;26.70;;;;;;;;;;4974774;28;20234;-82
2023/02/12 12:34:24;;;;;;;14.27;10.13;;;;;;;;;;4977486;28;20233;-83
2023/02/12 12:37:04;;;;;;;25.60;19.37;;;;;;;;;;4988860;28;20277;-84
2023/02/12 12:39:39;;;;;;;29.17;20.93;;;;;;;;;;4932987;28;20231;-82
2023/02/12 12:42:37;;;;;;;20.47;14.87;;;;;;;;;;4939232;28;20234;-83
2023/02/12 12:48:39;;;;;;;34.17;25.07;;;;;;;;;;4956957;28;20230;-83
2023/02/12 12:51:30;;;;;;;16.77;13.33;;;;;;;;;;5004386;28;20230;-83
2023/02/12 12:54:32;;;;;;;11.00;10.00;;;;;;;;;;4988494;28;20232;-85
2023/02/12 12:57:27;;;;;;;9.13;8.23;;;;;;;;;;4951572;28;20244;-83
2023/02/12 12:59:59;;;;;;;11.23;10.17;;;;;;;;;;4963856;28;20226;-85
2023/02/12 13:02:49;;;;;;;9.57;8.73;;;;;;;;;;4949068;28;20266;-83
2023/02/12 13:05:51;;;;;;;9.50;8.43;;;;;;;;;;4958412;28;20230;-82
2023/02/12 13:08:38;;;;;;;10.30;9.40;;;;;;;;;;4955071;28;20345;-83
2023/02/12 13:11:28;;;;;;;7.40;6.80;;;;;;;;;;4962159;28;20263;-83
2023/02/12 13:14:03;;;;;;;8.50;7.70;;;;;;;;;;4968852;28;20230;-83
2023/02/12 13:16:52;;;;;;;9.20;8.30;;;;;;;;;;4980314;28;20289;-81
2023/02/12 13:19:18;;;;;;;8.27;7.50;;;;;;;;;;4988630;28;20233;-82
2023/02/12 13:22:10;;;;;;;9.57;8.67;;;;;;;;;;4983824;28;20230;-83
2023/02/12 13:25:00;;;;;;;8.60;7.80;;;;;;;;;;4984806;28;20795;-84
2023/02/12 13:27:36;;;;;;;7.97;7.17;;;;;;;;;;4984494;28;20319;-81
2023/02/12 13:30:11;;;;;;;8.83;7.97;;;;;;;;;;4967171;28;20234;-82
2023/02/12 13:32:58;;;;;;;8.00;7.33;;;;;;;;;;4982961;28;20313;-83
2023/02/12 13:35:27;;;;;;;11.67;10.63;;;;;;;;;;4992402;28;20718;-83
2023/02/12 13:37:53;;;;;;;8.17;7.43;;;;;;;;;;4960215;28;20308;-84
2023/02/12 13:40:24;;;;;;;8.83;8.03;;;;;;;;;;4972995;28;20232;-82
2023/02/12 13:43:29;;;;;;;;;;;;;;;;;;;;;
2023/02/12 13:46:23;;;;;;;7.90;7.20;;;;;;;;;;4992346;28;20281;-84
2023/02/12 13:48:59;;;;;;;10.33;9.33;;;;;;;;;;4982429;28;20288;-82
2023/02/12 13:51:46;;;;;;;14.60;13.20;;;;;;;;;;4983144;28;20718;-82
2023/02/12 13:54:39;;;;;;;12.13;10.90;;;;;;;;;;4983185;28;21050;-83
2023/02/12 13:57:11;;;;;;;9.20;8.40;;;;;;;;;;4990591;28;20241;-83
2023/02/12 13:59:49;;;;;;;8.70;8.00;;;;;;;;;;4972356;28;20267;-83
2023/02/12 14:02:23;;;;;;;6.90;6.30;;;;;;;;;;4973739;28;20225;-83
2023/02/12 14:05:04;;;;;;;7.10;6.40;;;;;;;;;;4975783;28;20237;-83
2023/02/12 14:07:49;;;;;;;6.67;6.07;;;;;;;;;;4962283;28;20249;-83
2023/02/12 14:10:31;;;;;;;6.43;5.83;;;;;;;;;;4982213;28;20232;-83
2023/02/12 14:13:19;;;;;;;6.00;5.33;;;;;;;;;;4985248;28;20260;-83
2023/02/12 14:15:57;;;;;;;6.27;5.37;;;;;;;;;;4978543;28;20691;-81
2023/02/12 14:18:33;;;;;;;5.40;4.90;;;;;;;;;;4958800;28;20226;-85
2023/02/12 14:21:10;;;;;;;4.50;4.10;;;;;;;;;;4962814;28;20233;-81
2023/02/12 14:23:41;;;;;;;5.20;4.70;;;;;;;;;;4983820;28;20710;-81
2023/02/12 14:26:13;;;;;;;5.77;5.23;;;;;;;;;;4969320;28;20814;-80
2023/02/12 14:29:19;;;;;;;4.60;4.30;;;;;;;;;;4981190;28;20258;-80
2023/02/12 14:31:45;;;;;;;5.83;5.23;;;;;;;;;;4994047;28;20296;-83
2023/02/12 14:34:11;;;;;;;4.47;4.07;;;;;;;;;;4965263;28;20661;-82
2023/02/12 14:36:48;;;;;;;4.83;4.43;;;;;;;;;;4984282;28;20317;-82
2023/02/12 14:39:21;;;;;;;5.00;4.70;;;;;;;;;;4961341;28;20237;-82
2023/02/12 14:41:48;;;;;;;5.60;5.10;;;;;;;;;;4979154;28;20234;-82
2023/02/12 14:44:19;;;;;;;7.27;6.57;;;;;;;;;;4975696;28;20261;-82
2023/02/12 14:46:55;;;;;;;22.47;15.30;;;;;;;;;;5012905;28;20226;-82
2023/02/12 14:49:47;;;;;;;19.07;12.43;;;;;;;;;;4965856;28;20257;-82
2023/02/12 14:52:14;;;;;;;28.13;18.93;;;;;;;;;;5003650;28;20242;-82
2023/02/12 14:54:50;;;;;;;16.07;10.57;;;;;;;;;;5012582;28;20226;-82
2023/02/12 14:57:32;;;;;;;8.97;8.17;;;;;;;;;;4983651;28;20308;-80
2023/02/12 15:00:03;;;;;;;5.23;4.73;;;;;;;;;;5009388;28;21050;-81
2023/02/12 15:02:34;;;;;;;7.20;6.60;;;;;;;;;;4982333;28;20233;-81
2023/02/12 15:05:03;;;;;;;6.20;5.70;;;;;;;;;;4982875;28;20246;-82
2023/02/12 15:07:38;;;;;;;5.27;4.80;;;;;;;;;;4980477;28;20218;-83
2023/02/12 15:10:20;;;;;;;5.87;5.37;;;;;;;;;;4976713;28;20229;-81